Kota Taipei, Taiwan

01:06 PM CST on Agustus 28, 2016 (GMT +0800)
ITAIPEIT2 | | Change Station

Elev 30 ft 25.03 °N, 121.53 °E | Updated 11 seconds ago

Light Rain Showers
Gerimis Kecil
78.6 °F
Feels Like 80 °F
N
1.0
Angin Variable Angin from Arah Timur
Gusts 9.0 mph

Siang Ini
High -- | Low -- °F
--% Chance of Precip.
Yesterday
High -- | Low -- °F
Precip. -- Inch
Tekanan 29.71 Inch
Jarak Pandang 2.2 Mil
Awan Few 500 ft
Mendung Tidak Merata 800 ft
Mendung Merata 2000 ft
Ideks Panas 80 °F
Titik Embun 64 °F
Kelembaban 61%
Rainfall 0.30 Inch
Snow Depth Not available.
5:33 AM 6:16 PM
Waning Crescent, 18% visible
METAR RCSS 280430Z 12005KT 3500 -SHRA FEW005 SCT008 BKN020 26/23 Q1006 RESHRA NOSIG RMK A2973
Tekanan 29.71 Inch
Jarak Pandang 2.2 Mil
Awan Few 500 ft
Mendung Tidak Merata 800 ft
Mendung Merata 2000 ft
Ideks Panas 80 °F
Titik Embun 64 °F
Kelembaban 61%
Rainfall 0.30 Inch
Snow Depth Not available.
5:33 AM 6:16 PM
Waning Crescent, 18% visible
METAR RCSS 280430Z 12005KT 3500 -SHRA FEW005 SCT008 BKN020 26/23 Q1006 RESHRA NOSIG RMK A2973

10-Day Weather Forecast

No radar image for this location.
×

Almanac

Astronomi

Aug. 28, 2016 Rise Set
Actual Time
Civil Twilight
Nautical Twilight
Astronomical Twilight
Moon
Length Of Visible Light
Lama Satu Hari
Tomorrow will be .
, % of the Moon is Illuminated

Today's Extremes

Country Highs Country Lows

Community

WunderPhotos

Upload Photos

1,935,530 photos uploaded!

WunderBlog® & News

Nearby

Air Quality

  Air Quality AQ Index Pollutant
Not available.

Snow Depth

Station Depth Elevation

Earthquake Activity

City Distance Mag. Time & Date
Minimum magnitude displayed is 2.5.

Coastal Water Temperatures

Lokasi Temperatur

Stations

Nearby Weather Stations

Station Location Temp Angin Dingin Titik Embun Kelembaban Angin Precip. Elev Telah Diperbaharui Type